Time;durP1;ratioP1;P1;durP2;ratioP2;P2;SDS_P1;SDS_P2;PMS_P1;PMS_P2;Temp;Humidity;BMP_temperature;BMP_pressure;BME280_temperature;BME280_humidity;BME280_pressure;Samples;Min_cycle;Max_cycle;Signal;HPM_P1;HPM_P2
2021/08/12 00:01:17;;;;;;;13.38;10.75;;;;;;;;;;5042775;28;39503;-76
2021/08/12 00:03:44;;;;;;;11.95;9.82;;;;;;;;;;5040085;28;38927;-76
2021/08/12 00:06:11;;;;;;;13.30;9.85;;;;;;;;;;5032161;28;37620;-77
2021/08/12 00:08:37;;;;;;;13.68;11.02;;;;;;;;;;5030090;28;39729;-78
2021/08/12 00:11:05;;;;;;;14.88;11.30;;;;;;;;;;5040740;28;39360;-77
2021/08/12 00:13:32;;;;;;;12.25;10.98;;;;;;;;;;5042731;28;39173;-78
2021/08/12 00:16:03;;;;;;;12.18;10.60;;;;;;;;;;5045473;28;37905;-78
2021/08/12 00:18:30;;;;;;;16.42;10.57;;;;;;;;;;5018122;28;47118;-78
2021/08/12 00:20:56;;;;;;;13.23;9.63;;;;;;;;;;5038010;28;38676;-78
2021/08/12 00:23:23;;;;;;;12.05;9.52;;;;;;;;;;5048113;28;38088;-78
2021/08/12 00:25:49;;;;;;;12.88;9.20;;;;;;;;;;5026821;28;37573;-77
2021/08/12 00:28:16;;;;;;;14.80;10.90;;;;;;;;;;5040031;28;38834;-77
2021/08/12 00:30:42;;;;;;;11.93;10.13;;;;;;;;;;5028836;28;39308;-78
2021/08/12 00:33:08;;;;;;;15.48;11.63;;;;;;;;;;5024519;28;38795;-78
2021/08/12 00:35:35;;;;;;;11.98;9.63;;;;;;;;;;5043123;28;37760;-78
2021/08/12 00:38:01;;;;;;;15.77;10.68;;;;;;;;;;5030933;28;39466;-78
2021/08/12 00:40:28;;;;;;;16.08;11.32;;;;;;;;;;5039456;28;48923;-77
2021/08/12 00:42:54;;;;;;;14.25;11.23;;;;;;;;;;5036807;28;38611;-77
2021/08/12 00:45:21;;;;;;;16.95;11.50;;;;;;;;;;5039530;28;37932;-77
2021/08/12 00:47:47;;;;;;;15.07;11.80;;;;;;;;;;5037104;28;39243;-77
2021/08/12 00:50:13;;;;;;;11.50;10.23;;;;;;;;;;5022341;28;39069;-78
2021/08/12 00:52:40;;;;;;;18.27;12.35;;;;;;;;;;5038807;28;37235;-78
2021/08/12 00:55:07;;;;;;;20.35;15.63;;;;;;;;;;5044250;28;37813;-77
2021/08/12 00:57:35;;;;;;;17.13;13.95;;;;;;;;;;5047443;28;38788;-77
2021/08/12 01:00:03;;;;;;;16.98;13.00;;;;;;;;;;5032201;28;38902;-78
2021/08/12 01:02:29;;;;;;;18.85;14.27;;;;;;;;;;5045040;28;48383;-78
2021/08/12 01:04:56;;;;;;;17.00;12.73;;;;;;;;;;5043872;28;37914;-78
2021/08/12 01:07:25;;;;;;;17.77;14.02;;;;;;;;;;5041114;28;38866;-78
2021/08/12 01:09:51;;;;;;;19.85;14.48;;;;;;;;;;5043802;28;38949;-80
2021/08/12 01:12:24;;;;;;;20.33;15.55;;;;;;;;;;5034557;28;37440;-78
2021/08/12 01:14:50;;;;;;;;;;;;;;;;;;5024942;28;38581;-77
2021/08/12 01:17:20;;;;;;;17.17;13.05;;;;;;;;;;5034761;28;40363;-78
2021/08/12 01:19:46;;;;;;;17.23;12.77;;;;;;;;;;5040395;28;39883;-78
2021/08/12 01:22:14;;;;;;;15.48;12.60;;;;;;;;;;5042878;28;37042;-77
2021/08/12 01:24:42;;;;;;;21.08;14.85;;;;;;;;;;5035558;28;35882;-77
2021/08/12 01:27:11;;;;;;;16.90;12.68;;;;;;;;;;5033834;28;38582;-78
2021/08/12 01:29:37;;;;;;;19.38;13.80;;;;;;;;;;5036462;28;39782;-77
2021/08/12 01:32:09;;;;;;;18.63;14.23;;;;;;;;;;5036695;28;39292;-77
2021/08/12 01:34:55;;;;;;;16.73;13.82;;;;;;;;;;5041396;28;36934;-77
2021/08/12 01:37:21;;;;;;;15.50;12.13;;;;;;;;;;5032029;28;39081;-77
2021/08/12 01:39:48;;;;;;;20.27;13.60;;;;;;;;;;5037418;28;39996;-78
2021/08/12 01:42:14;;;;;;;19.60;12.95;;;;;;;;;;5025481;28;39615;-77
2021/08/12 01:44:41;;;;;;;15.38;12.27;;;;;;;;;;5034372;28;37431;-77
2021/08/12 01:47:08;;;;;;;12.90;10.95;;;;;;;;;;5021016;28;37348;-77
2021/08/12 01:49:36;;;;;;;23.17;15.32;;;;;;;;;;5039827;28;39966;-77
2021/08/12 01:52:03;;;;;;;21.20;15.27;;;;;;;;;;5029378;28;38395;-77
2021/08/12 01:54:30;;;;;;;19.58;15.45;;;;;;;;;;5035723;28;37471;-77
2021/08/12 01:56:57;;;;;;;19.02;15.02;;;;;;;;;;5044566;28;40511;-77
2021/08/12 01:59:24;;;;;;;20.85;15.45;;;;;;;;;;5020232;28;40474;-77
2021/08/12 02:01:51;;;;;;;18.58;13.50;;;;;;;;;;5042064;28;38351;-78
2021/08/12 02:04:18;;;;;;;25.13;17.40;;;;;;;;;;5038201;28;37012;-77
2021/08/12 02:06:45;;;;;;;19.50;13.70;;;;;;;;;;5038141;28;40562;-77
2021/08/12 02:09:11;;;;;;;24.60;17.35;;;;;;;;;;5027486;28;39684;-77
2021/08/12 02:11:38;;;;;;;18.52;15.13;;;;;;;;;;5039582;28;38379;-77
2021/08/12 02:14:04;;;;;;;26.83;16.58;;;;;;;;;;5027876;28;36281;-78
2021/08/12 02:16:31;;;;;;;22.67;16.63;;;;;;;;;;5047388;28;40031;-77
2021/08/12 02:18:58;;;;;;;30.13;17.67;;;;;;;;;;5047408;28;39247;-77
2021/08/12 02:21:28;;;;;;;32.33;17.75;;;;;;;;;;5026899;28;37569;-78
2021/08/12 02:24:01;;;;;;;23.80;16.50;;;;;;;;;;5047464;28;38329;-77
2021/08/12 02:26:30;;;;;;;19.80;15.00;;;;;;;;;;5039037;28;48417;-77
2021/08/12 02:28:57;;;;;;;26.23;16.85;;;;;;;;;;5029139;28;37811;-77
2021/08/12 02:31:23;;;;;;;19.70;16.85;;;;;;;;;;5043163;28;38435;-77
2021/08/12 02:33:50;;;;;;;23.27;17.00;;;;;;;;;;5043004;28;35200;-77
2021/08/12 02:36:17;;;;;;;20.60;15.73;;;;;;;;;;5026723;28;39390;-78
2021/08/12 02:38:44;;;;;;;21.70;15.55;;;;;;;;;;5028558;28;40186;-77
2021/08/12 02:41:12;;;;;;;25.17;15.70;;;;;;;;;;5041827;28;39291;-78
2021/08/12 02:43:41;;;;;;;23.60;16.88;;;;;;;;;;5024118;28;37923;-78
2021/08/12 02:46:08;;;;;;;18.65;13.63;;;;;;;;;;5042134;28;38907;-77
2021/08/12 02:48:35;;;;;;;21.50;14.52;;;;;;;;;;5022217;28;38883;-78
2021/08/12 02:51:01;;;;;;;19.15;14.13;;;;;;;;;;5033988;28;38981;-78
2021/08/12 02:53:32;;;;;;;19.52;14.18;;;;;;;;;;5038830;28;48685;-77
2021/08/12 02:55:59;;;;;;;26.52;16.58;;;;;;;;;;5041266;28;39969;-77
2021/08/12 02:58:32;;;;;;;22.98;15.38;;;;;;;;;;5027688;28;38638;-77
2021/08/12 03:00:59;;;;;;;21.55;15.32;;;;;;;;;;5023922;28;37927;-77
2021/08/12 03:03:26;;;;;;;17.13;12.63;;;;;;;;;;5026031;28;37523;-77
2021/08/12 03:05:53;;;;;;;17.00;14.25;;;;;;;;;;5045577;28;39707;-77
2021/08/12 03:08:20;;;;;;;23.88;15.13;;;;;;;;;;5035749;28;39677;-77
2021/08/12 03:10:46;;;;;;;21.30;13.57;;;;;;;;;;5040415;28;39281;-77
2021/08/12 03:13:13;;;;;;;16.92;12.85;;;;;;;;;;5027316;28;37042;-77
2021/08/12 03:15:39;;;;;;;19.05;14.25;;;;;;;;;;5036950;28;39375;-77
2021/08/12 03:18:07;;;;;;;20.73;15.07;;;;;;;;;;5043162;28;40564;-77
2021/08/12 03:20:33;;;;;;;18.10;14.52;;;;;;;;;;5031176;28;38036;-77
2021/08/12 03:23:00;;;;;;;17.90;13.80;;;;;;;;;;5040037;28;36094;-77
2021/08/12 03:25:26;;;;;;;25.75;17.75;;;;;;;;;;5026585;28;37920;-77
2021/08/12 03:27:52;;;;;;;26.27;17.15;;;;;;;;;;5024990;28;37669;-78
2021/08/12 03:30:19;;;;;;;26.80;16.95;;;;;;;;;;5038083;28;37817;-78
2021/08/12 03:32:45;;;;;;;22.90;17.33;;;;;;;;;;5043179;28;36938;-77
2021/08/12 03:35:12;;;;;;;23.95;16.55;;;;;;;;;;5033521;28;38004;-77
2021/08/12 03:37:38;;;;;;;20.13;15.73;;;;;;;;;;5032238;28;38255;-78
2021/08/12 03:40:05;;;;;;;26.20;16.88;;;;;;;;;;5026185;28;38941;-78
2021/08/12 03:42:31;;;;;;;25.30;17.38;;;;;;;;;;5041266;28;38133;-77
2021/08/12 03:44:58;;;;;;;25.60;17.80;;;;;;;;;;5023538;28;39105;-78
2021/08/12 03:47:24;;;;;;;24.95;16.73;;;;;;;;;;5019622;28;39202;-78
2021/08/12 03:49:50;;;;;;;24.75;19.05;;;;;;;;;;5019534;28;38446;-78
2021/08/12 03:52:17;;;;;;;24.23;16.70;;;;;;;;;;5018294;28;37106;-78
2021/08/12 03:54:43;;;;;;;25.52;17.38;;;;;;;;;;5027087;28;37871;-78
2021/08/12 03:57:09;;;;;;;24.30;18.45;;;;;;;;;;5042875;28;37493;-77
2021/08/12 03:59:36;;;;;;;26.05;17.48;;;;;;;;;;5042091;28;37662;-77
2021/08/12 04:02:02;;;;;;;29.08;18.10;;;;;;;;;;5045812;28;37233;-77
2021/08/12 04:04:29;;;;;;;31.95;22.17;;;;;;;;;;5026891;28;39322;-78
2021/08/12 04:06:55;;;;;;;30.45;20.63;;;;;;;;;;5039365;28;39838;-78
2021/08/12 04:09:21;;;;;;;27.00;18.50;;;;;;;;;;5039737;28;38439;-77
2021/08/12 04:11:48;;;;;;;29.55;21.50;;;;;;;;;;5043203;28;37118;-78
2021/08/12 04:14:14;;;;;;;35.70;24.17;;;;;;;;;;5026662;28;37659;-78
2021/08/12 04:16:40;;;;;;;31.15;20.60;;;;;;;;;;5026614;28;37434;-77
2021/08/12 04:19:09;;;;;;;35.40;23.20;;;;;;;;;;5041871;28;38634;-78
2021/08/12 04:21:35;;;;;;;38.28;24.33;;;;;;;;;;5042513;28;38301;-78
2021/08/12 04:24:01;;;;;;;35.90;23.65;;;;;;;;;;5032040;28;37580;-76
2021/08/12 04:26:28;;;;;;;41.97;27.45;;;;;;;;;;5044650;28;38354;-77
2021/08/12 04:28:55;;;;;;;47.55;30.85;;;;;;;;;;5041883;28;38621;-77
2021/08/12 04:31:22;;;;;;;46.63;30.50;;;;;;;;;;5018194;28;36007;-77
2021/08/12 04:33:48;;;;;;;44.33;29.48;;;;;;;;;;5036829;28;37307;-78
2021/08/12 04:36:14;;;;;;;44.75;29.27;;;;;;;;;;5039733;28;37800;-77
2021/08/12 04:38:41;;;;;;;46.67;30.60;;;;;;;;;;5035093;28;38376;-77
2021/08/12 04:41:07;;;;;;;64.72;36.85;;;;;;;;;;5036681;28;37901;-77
2021/08/12 04:43:34;;;;;;;47.67;30.98;;;;;;;;;;5022763;28;39434;-77
2021/08/12 04:46:01;;;;;;;52.28;32.20;;;;;;;;;;5036917;28;39066;-77
2021/08/12 04:48:28;;;;;;;40.80;27.35;;;;;;;;;;5017367;28;47052;-77
2021/08/12 04:50:54;;;;;;;39.95;28.10;;;;;;;;;;5024177;28;37918;-77
2021/08/12 04:53:20;;;;;;;55.00;33.05;;;;;;;;;;5021929;28;39443;-78
2021/08/12 04:55:47;;;;;;;42.40;28.05;;;;;;;;;;5018095;28;39062;-77
2021/08/12 04:58:13;;;;;;;59.65;34.28;;;;;;;;;;5024675;28;39252;-77
2021/08/12 05:00:40;;;;;;;46.55;30.73;;;;;;;;;;5019123;28;37399;-77
2021/08/12 05:03:06;;;;;;;55.78;34.20;;;;;;;;;;5018891;28;40220;-77
2021/08/12 05:05:33;;;;;;;46.60;31.17;;;;;;;;;;5020385;28;40090;-77
2021/08/12 05:07:59;;;;;;;48.80;31.25;;;;;;;;;;5024973;28;39382;-77
2021/08/12 05:10:25;;;;;;;54.60;33.53;;;;;;;;;;5023203;28;37531;-77
2021/08/12 05:12:52;;;;;;;47.03;31.52;;;;;;;;;;5023840;28;38948;-77
2021/08/12 05:15:18;;;;;;;58.25;34.40;;;;;;;;;;5012072;28;40169;-77
2021/08/12 05:17:45;;;;;;;47.83;32.50;;;;;;;;;;5019260;28;38825;-78
2021/08/12 05:20:12;;;;;;;47.22;32.03;;;;;;;;;;5020830;28;36798;-77
2021/08/12 05:22:38;;;;;;;39.97;28.65;;;;;;;;;;5019950;28;38526;-78
2021/08/12 05:25:05;;;;;;;41.80;29.27;;;;;;;;;;5027130;28;41808;-75
2021/08/12 05:27:32;;;;;;;42.75;29.92;;;;;;;;;;5028893;28;40230;-77
2021/08/12 05:29:58;;;;;;;42.22;30.05;;;;;;;;;;5026510;28;38774;-77
2021/08/12 05:32:24;;;;;;;44.08;30.02;;;;;;;;;;5021623;28;39065;-77
2021/08/12 05:34:51;;;;;;;46.13;31.58;;;;;;;;;;5023527;28;39045;-77
2021/08/12 05:37:17;;;;;;;47.75;31.45;;;;;;;;;;5026447;28;39877;-78
2021/08/12 05:39:43;;;;;;;39.45;27.38;;;;;;;;;;5032360;28;37169;-77
2021/08/12 05:42:10;;;;;;;38.97;28.55;;;;;;;;;;5021119;28;37889;-77
2021/08/12 05:44:36;;;;;;;38.00;27.23;;;;;;;;;;5027359;28;40138;-78
2021/08/12 05:47:03;;;;;;;52.55;30.92;;;;;;;;;;5036562;28;39566;-77
2021/08/12 05:49:29;;;;;;;38.30;27.15;;;;;;;;;;5047242;28;35893;-78
2021/08/12 05:51:55;;;;;;;39.38;25.73;;;;;;;;;;5034557;28;40837;-77
2021/08/12 05:54:22;;;;;;;36.38;26.65;;;;;;;;;;5046105;28;38004;-77
2021/08/12 05:56:48;;;;;;;33.65;25.58;;;;;;;;;;5048030;28;42057;-78
2021/08/12 05:59:15;;;;;;;38.95;27.00;;;;;;;;;;5038323;28;37138;-78
2021/08/12 06:01:41;;;;;;;33.40;25.08;;;;;;;;;;5020239;28;40061;-78
2021/08/12 06:04:07;;;;;;;31.85;25.00;;;;;;;;;;5039755;28;40256;-78
2021/08/12 06:06:37;;;;;;;36.78;26.42;;;;;;;;;;5046512;28;39739;-78
2021/08/12 06:09:03;;;;;;;40.97;27.08;;;;;;;;;;5048023;28;37040;-77
2021/08/12 06:11:29;;;;;;;34.28;25.70;;;;;;;;;;5045546;28;38628;-78
2021/08/12 06:13:56;;;;;;;35.15;25.95;;;;;;;;;;5044129;28;38807;-78
2021/08/12 06:16:22;;;;;;;29.67;22.98;;;;;;;;;;5045926;28;39515;-78
2021/08/12 06:18:48;;;;;;;28.15;22.50;;;;;;;;;;5043040;28;36916;-77
2021/08/12 06:21:16;;;;;;;27.48;22.38;;;;;;;;;;5027832;28;40597;-78
2021/08/12 06:23:42;;;;;;;31.27;22.52;;;;;;;;;;5049042;28;38963;-77
2021/08/12 06:26:10;;;;;;;21.50;18.15;;;;;;;;;;5044605;28;38858;-77
2021/08/12 06:28:37;;;;;;;22.33;17.40;;;;;;;;;;5034332;28;37511;-78
2021/08/12 06:31:03;;;;;;;22.63;17.33;;;;;;;;;;5030806;28;39682;-77
2021/08/12 06:33:30;;;;;;;21.27;17.02;;;;;;;;;;5030230;28;40421;-78
2021/08/12 06:35:57;;;;;;;19.42;15.68;;;;;;;;;;5043042;28;39517;-79
2021/08/12 06:38:23;;;;;;;20.50;15.75;;;;;;;;;;5038469;28;36734;-78
2021/08/12 06:40:50;;;;;;;17.67;13.82;;;;;;;;;;5045160;28;39805;-78
2021/08/12 06:43:16;;;;;;;17.83;12.90;;;;;;;;;;5041991;28;40163;-78
2021/08/12 06:45:44;;;;;;;14.50;11.65;;;;;;;;;;5031641;28;38491;-77
2021/08/12 06:48:11;;;;;;;14.40;11.55;;;;;;;;;;5028475;28;37678;-78
2021/08/12 06:50:37;;;;;;;14.13;11.50;;;;;;;;;;5046673;28;38797;-78
2021/08/12 06:53:04;;;;;;;14.07;11.35;;;;;;;;;;5046519;28;39913;-77
2021/08/12 06:55:30;;;;;;;13.45;9.88;;;;;;;;;;5046090;28;39063;-78
2021/08/12 06:57:58;;;;;;;11.45;9.68;;;;;;;;;;5031247;28;37806;-77
2021/08/12 07:00:24;;;;;;;9.60;7.72;;;;;;;;;;5029024;28;39977;-78
2021/08/12 07:02:52;;;;;;;11.73;7.65;;;;;;;;;;5037240;28;38313;-79
2021/08/12 07:05:18;;;;;;;8.57;6.97;;;;;;;;;;5040068;28;38485;-78
2021/08/12 07:07:45;;;;;;;11.63;6.53;;;;;;;;;;5031299;28;35258;-78
2021/08/12 07:10:13;;;;;;;8.75;5.78;;;;;;;;;;5028359;28;40336;-78
2021/08/12 07:12:39;;;;;;;8.25;5.47;;;;;;;;;;5041876;28;39150;-78
2021/08/12 07:15:06;;;;;;;7.30;5.72;;;;;;;;;;5029600;28;38533;-78
2021/08/12 07:17:36;;;;;;;10.00;6.57;;;;;;;;;;5043455;28;37119;-79
2021/08/12 07:20:03;;;;;;;11.57;5.60;;;;;;;;;;5026091;28;39592;-79
2021/08/12 07:22:29;;;;;;;7.85;4.30;;;;;;;;;;5046650;28;46733;-79
2021/08/12 07:24:56;;;;;;;6.57;4.60;;;;;;;;;;5044919;28;38923;-79
2021/08/12 07:27:22;;;;;;;7.50;4.35;;;;;;;;;;5023618;28;36833;-78
2021/08/12 07:29:49;;;;;;;7.15;3.72;;;;;;;;;;5043244;28;39394;-79
2021/08/12 07:32:16;;;;;;;4.60;3.40;;;;;;;;;;5043882;28;38735;-79
2021/08/12 07:34:42;;;;;;;6.82;3.95;;;;;;;;;;5047017;28;39246;-79
2021/08/12 07:37:08;;;;;;;8.65;3.47;;;;;;;;;;5027851;28;38549;-79
2021/08/12 07:39:35;;;;;;;5.15;3.28;;;;;;;;;;5044941;28;40237;-78
2021/08/12 07:42:01;;;;;;;5.47;3.55;;;;;;;;;;5040800;28;38858;-78
2021/08/12 07:44:27;;;;;;;5.80;3.55;;;;;;;;;;5021760;28;46443;-78
2021/08/12 07:46:54;;;;;;;8.55;4.57;;;;;;;;;;5040106;28;36881;-78
2021/08/12 07:49:21;;;;;;;8.73;3.45;;;;;;;;;;5024983;28;20055;-78
2021/08/12 07:51:48;;;;;;;3.97;2.97;;;;;;;;;;5051644;28;39204;-78
2021/08/12 07:54:14;;;;;;;8.35;3.80;;;;;;;;;;5048548;28;38702;-78
2021/08/12 07:56:40;;;;;;;4.97;3.13;;;;;;;;;;5045123;28;36632;-78
2021/08/12 07:59:07;;;;;;;6.72;3.65;;;;;;;;;;5046624;28;39098;-78
2021/08/12 08:01:33;;;;;;;4.60;3.25;;;;;;;;;;5046480;28;38987;-78
2021/08/12 08:04:01;;;;;;;8.85;3.88;;;;;;;;;;5048549;28;39870;-77
2021/08/12 08:06:28;;;;;;;6.82;3.97;;;;;;;;;;5026500;28;47524;-79
2021/08/12 08:08:54;;;;;;;4.65;3.40;;;;;;;;;;5046910;28;38575;-78
2021/08/12 08:11:21;;;;;;;3.58;2.80;;;;;;;;;;5032406;28;39066;-78
2021/08/12 08:13:47;;;;;;;7.85;3.50;;;;;;;;;;5057766;28;39367;-79
2021/08/12 08:16:14;;;;;;;4.50;2.72;;;;;;;;;;5035145;28;38434;-78
2021/08/12 08:18:40;;;;;;;3.53;2.42;;;;;;;;;;5043057;28;38832;-78
2021/08/12 08:21:06;;;;;;;4.43;2.35;;;;;;;;;;5040732;28;39600;-77
2021/08/12 08:23:35;;;;;;;3.70;2.40;;;;;;;;;;5039855;28;38382;-76
2021/08/12 08:26:01;;;;;;;4.28;2.60;;;;;;;;;;5037395;28;35698;-77
2021/08/12 08:28:28;;;;;;;4.25;1.92;;;;;;;;;;5039134;28;48452;-77
2021/08/12 08:30:55;;;;;;;7.10;1.88;;;;;;;;;;5044008;28;39465;-75
2021/08/12 08:33:22;;;;;;;3.20;2.30;;;;;;;;;;5009489;28;38245;-76
2021/08/12 08:35:48;;;;;;;3.75;2.10;;;;;;;;;;5008477;28;35868;-76
2021/08/12 08:38:15;;;;;;;2.67;2.00;;;;;;;;;;5041529;28;37925;-76
2021/08/12 08:40:42;;;;;;;4.30;2.17;;;;;;;;;;5041114;28;38052;-76
2021/08/12 08:43:09;;;;;;;4.53;2.30;;;;;;;;;;5042251;28;38198;-76
2021/08/12 08:45:39;;;;;;;2.65;1.90;;;;;;;;;;5039754;28;36077;-76
2021/08/12 08:48:07;;;;;;;4.95;2.03;;;;;;;;;;5023888;28;38934;-78
2021/08/12 08:50:36;;;;;;;3.67;2.08;;;;;;;;;;5036113;28;39147;-78
2021/08/12 08:53:03;;;;;;;4.65;2.42;;;;;;;;;;5036812;28;38694;-79
2021/08/12 08:55:29;;;;;;;6.93;3.10;;;;;;;;;;5031878;28;37145;-79
2021/08/12 08:57:59;;;;;;;5.00;2.65;;;;;;;;;;5015817;28;40723;-79
2021/08/12 09:14:38;;;;;;;4.68;2.95;;;;;;;;;;6164713;22;20162;-79
2021/08/12 09:17:19;;;;;;;6.20;2.53;;;;;;;;;;5019152;28;37073;-77
2021/08/12 09:20:05;;;;;;;4.93;3.10;;;;;;;;;;5015958;28;40974;-78
2021/08/12 09:22:52;;;;;;;6.28;2.90;;;;;;;;;;5013860;28;47397;-78
2021/08/12 09:25:44;;;;;;;3.95;2.88;;;;;;;;;;4997149;28;38016;-77
2021/08/12 09:28:18;;;;;;;4.75;2.35;;;;;;;;;;5010446;28;38041;-77
2021/08/12 09:30:46;;;;;;;6.43;3.25;;;;;;;;;;5009612;28;40231;-78
2021/08/12 09:33:16;;;;;;;7.25;4.30;;;;;;;;;;5020783;28;38582;-77
2021/08/12 09:35:42;;;;;;;4.68;3.85;;;;;;;;;;5006737;28;38644;-79
2021/08/12 09:38:10;;;;;;;10.27;4.38;;;;;;;;;;5008847;28;36106;-79
2021/08/12 09:40:36;;;;;;;7.15;4.30;;;;;;;;;;5007822;28;38101;-80
2021/08/12 09:43:04;;;;;;;8.18;4.18;;;;;;;;;;5013781;28;38064;-78
2021/08/12 09:45:31;;;;;;;7.35;3.63;;;;;;;;;;5019898;28;39680;-79
2021/08/12 09:48:13;;;;;;;4.35;3.25;;;;;;;;;;5012821;28;35864;-79
2021/08/12 09:50:41;;;;;;;;;;;;;;;;;;5008667;28;45558;-80
2021/08/12 09:53:07;;;;;;;4.97;3.28;;;;;;;;;;5026564;28;38747;-80
2021/08/12 09:55:40;;;;;;;6.28;3.10;;;;;;;;;;5018600;28;37590;-79
2021/08/12 09:58:07;;;;;;;4.70;3.00;;;;;;;;;;5023692;28;35751;-80
2021/08/12 10:00:56;;;;;;;5.63;3.78;;;;;;;;;;5018176;28;38185;-80
2021/08/12 10:03:32;;;;;;;5.47;3.70;;;;;;;;;;5020730;28;39475;-79
2021/08/12 10:06:00;;;;;;;5.00;3.10;;;;;;;;;;5010703;28;37426;-80
2021/08/12 10:08:32;;;;;;;4.80;3.15;;;;;;;;;;5028127;28;36993;-81
2021/08/12 10:10:59;;;;;;;;;;;;;;;;;;5233039;22;38112;-79
2021/08/12 10:16:06;;;;;;;3.97;3.05;;;;;;;;;;5089265;28;20044;-81
2021/08/12 10:18:32;;;;;;;4.43;3.60;;;;;;;;;;5082324;28;47378;-81
2021/08/12 10:20:59;;;;;;;7.47;4.25;;;;;;;;;;5058358;28;38482;-79
2021/08/12 10:23:27;;;;;;;4.65;3.53;;;;;;;;;;5072467;28;37369;-79
2021/08/12 10:25:58;;;;;;;5.63;2.33;;;;;;;;;;5070471;28;39698;-79
2021/08/12 10:28:28;;;;;;;3.95;2.70;;;;;;;;;;5077353;28;36110;-79
2021/08/12 10:30:54;;;;;;;5.07;2.78;;;;;;;;;;5064299;28;38966;-80
2021/08/12 10:33:21;;;;;;;5.68;2.85;;;;;;;;;;5080879;28;37952;-80
2021/08/12 10:35:47;;;;;;;5.30;4.10;;;;;;;;;;5065315;28;37736;-80
2021/08/12 10:38:14;;;;;;;4.53;3.45;;;;;;;;;;5084036;28;37035;-80
2021/08/12 10:40:42;;;;;;;5.85;4.25;;;;;;;;;;5081782;28;39230;-80
2021/08/12 10:43:10;;;;;;;5.45;4.15;;;;;;;;;;5066400;28;38144;-80
2021/08/12 10:45:36;;;;;;;6.57;4.40;;;;;;;;;;5064460;28;37799;-80
2021/08/12 10:48:03;;;;;;;5.25;3.90;;;;;;;;;;5055564;28;35633;-80
2021/08/12 10:50:34;;;;;;;7.13;4.25;;;;;;;;;;5069484;28;38988;-80
2021/08/12 10:53:07;;;;;;;5.63;4.45;;;;;;;;;;5069524;28;38811;-80
2021/08/12 10:55:36;;;;;;;4.95;3.85;;;;;;;;;;5068223;28;48827;-81
2021/08/12 10:58:23;;;;;;;5.43;3.35;;;;;;;;;;5075421;28;36336;-80
2021/08/12 11:00:50;;;;;;;6.50;4.30;;;;;;;;;;5072745;28;39461;-80
2021/08/12 11:03:34;;;;;;;5.00;3.90;;;;;;;;;;5062105;28;37863;-80
2021/08/12 11:06:04;;;;;;;5.82;3.80;;;;;;;;;;5066939;28;40679;-80
2021/08/12 11:08:57;;;;;;;5.95;3.97;;;;;;;;;;5076097;28;49160;-80
2021/08/12 11:11:23;;;;;;;5.18;3.63;;;;;;;;;;5053669;23;39617;-81
2021/08/12 11:13:51;;;;;;;7.75;3.75;;;;;;;;;;5018581;28;37900;-77
2021/08/12 11:16:25;;;;;;;5.20;3.42;;;;;;;;;;5035115;28;40341;-79
2021/08/12 11:19:01;;;;;;;8.40;4.13;;;;;;;;;;5048847;28;37179;-78
2021/08/12 11:21:31;;;;;;;6.18;3.75;;;;;;;;;;5028769;28;49860;-78
2021/08/12 11:23:58;;;;;;;4.30;2.92;;;;;;;;;;5035773;28;40486;-76
2021/08/12 11:26:25;;;;;;;5.82;4.50;;;;;;;;;;5066791;22;39126;-77
2021/08/12 11:28:52;;;;;;;7.03;4.47;;;;;;;;;;5045198;28;37195;-76
2021/08/12 11:31:19;;;;;;;7.45;4.65;;;;;;;;;;5023494;28;39026;-79
2021/08/12 11:33:46;;;;;;;5.15;3.17;;;;;;;;;;5033140;28;37882;-76
2021/08/12 11:36:15;;;;;;;5.93;4.05;;;;;;;;;;5054614;28;40392;-78
2021/08/12 11:38:43;;;;;;;5.22;3.70;;;;;;;;;;5039724;28;38202;-78
2021/08/12 11:41:09;;;;;;;4.18;3.20;;;;;;;;;;5055815;28;40027;-79
2021/08/12 11:43:38;;;;;;;8.52;4.38;;;;;;;;;;5056087;28;38696;-79
2021/08/12 11:46:04;;;;;;;6.05;3.35;;;;;;;;;;5056637;28;39760;-78
2021/08/12 11:48:34;;;;;;;8.65;4.35;;;;;;;;;;5041080;28;35792;-78
2021/08/12 11:51:01;;;;;;;7.78;5.07;;;;;;;;;;5055019;28;39087;-78
2021/08/12 11:53:41;;;;;;;5.97;4.97;;;;;;;;;;5051193;28;49195;-78
2021/08/12 11:56:27;;;;;;;4.78;4.28;;;;;;;;;;5052441;28;38691;-77
2021/08/12 11:58:55;;;;;;;6.15;4.60;;;;;;;;;;5040640;28;38858;-77
2021/08/12 12:01:25;;;;;;;7.22;3.95;;;;;;;;;;5035232;28;39474;-77
2021/08/12 12:03:58;;;;;;;6.68;4.60;;;;;;;;;;5061152;28;39428;-78
2021/08/12 12:06:32;;;;;;;5.25;4.13;;;;;;;;;;5048355;28;39479;-78
2021/08/12 12:08:59;;;;;;;6.82;4.07;;;;;;;;;;5053213;28;38175;-78
2021/08/12 12:11:25;;;;;;;5.03;4.10;;;;;;;;;;5049905;28;39273;-79
2021/08/12 12:14:00;;;;;;;6.63;5.07;;;;;;;;;;5053397;28;39413;-79
2021/08/12 12:16:27;;;;;;;7.50;4.93;;;;;;;;;;5104047;22;47994;-78
2021/08/12 12:18:53;;;;;;;7.57;5.00;;;;;;;;;;5051732;28;37469;-78
2021/08/12 12:21:20;;;;;;;8.23;4.75;;;;;;;;;;5041909;28;39512;-80
2021/08/12 12:23:57;;;;;;;7.93;4.25;;;;;;;;;;5075159;28;39187;-82
2021/08/12 12:26:25;;;;;;;6.72;4.70;;;;;;;;;;5240518;22;38678;-80
2021/08/12 12:29:12;;;;;;;7.60;5.45;;;;;;;;;;5059052;28;35519;-79
2021/08/12 12:37:01;;;;;;;6.13;4.63;;;;;;;;;;5024996;28;19926;-80
2021/08/12 12:39:27;;;;;;;6.93;5.53;;;;;;;;;;5044990;28;49263;-81
2021/08/12 12:42:07;;;;;;;6.45;5.05;;;;;;;;;;5028333;28;38820;-80
2021/08/12 12:44:35;;;;;;;7.93;4.93;;;;;;;;;;5042848;28;50120;-79
2021/08/12 12:47:20;;;;;;;5.15;3.70;;;;;;;;;;5023117;28;37754;-80
2021/08/12 12:49:49;;;;;;;6.43;5.28;;;;;;;;;;5030254;28;48376;-80
2021/08/12 12:52:30;;;;;;;7.03;5.10;;;;;;;;;;5045626;28;39384;-80
2021/08/12 12:55:02;;;;;;;6.82;4.68;;;;;;;;;;5093560;23;37661;-82
2021/08/12 12:57:35;;;;;;;5.60;4.82;;;;;;;;;;5090236;28;39558;-82
2021/08/12 13:00:29;;;;;;;8.35;6.40;;;;;;;;;;5089926;28;36055;-82
2021/08/12 13:02:56;;;;;;;5.85;5.25;;;;;;;;;;5094729;28;49293;-82
2021/08/12 13:05:49;;;;;;;8.38;4.78;;;;;;;;;;5093992;28;39293;-82
2021/08/12 13:08:16;;;;;;;8.77;5.28;;;;;;;;;;5091299;28;41047;-83
2021/08/12 13:11:03;;;;;;;10.57;6.45;;;;;;;;;;5094415;28;36803;-82
2021/08/12 13:13:30;;;;;;;8.48;6.50;;;;;;;;;;5093230;28;49214;-82
2021/08/12 13:16:04;;;;;;;6.60;4.60;;;;;;;;;;5091594;28;40425;-82
2021/08/12 13:18:50;;;;;;;7.90;5.53;;;;;;;;;;5095709;28;48664;-79
2021/08/12 13:21:31;;;;;;;6.78;5.05;;;;;;;;;;5088015;28;37529;-81
2021/08/12 13:23:59;;;;;;;7.72;6.22;;;;;;;;;;5093567;28;38945;-81
2021/08/12 13:26:26;;;;;;;9.40;5.93;;;;;;;;;;5088264;28;39012;-81
2021/08/12 13:29:01;;;;;;;7.40;5.30;;;;;;;;;;5085902;28;39886;-81
2021/08/12 13:31:34;;;;;;;8.10;5.70;;;;;;;;;;5094851;28;36745;-80
2021/08/12 13:34:01;;;;;;;5.95;4.97;;;;;;;;;;5082322;28;37578;-81
2021/08/12 13:36:27;;;;;;;7.47;5.55;;;;;;;;;;5083575;28;48969;-81
2021/08/12 13:38:53;;;;;;;6.13;4.80;;;;;;;;;;5087550;28;39082;-81
2021/08/12 13:41:21;;;;;;;8.25;6.18;;;;;;;;;;5086884;28;36766;-81
2021/08/12 13:43:47;;;;;;;9.85;6.72;;;;;;;;;;5098208;28;39951;-79
2021/08/12 13:46:14;;;;;;;8.32;6.88;;;;;;;;;;5086520;28;38789;-80
2021/08/12 13:48:40;;;;;;;7.30;5.78;;;;;;;;;;5075042;28;38316;-80
2021/08/12 13:51:08;;;;;;;12.93;8.10;;;;;;;;;;5080784;28;36600;-80
2021/08/12 13:53:35;;;;;;;8.93;6.45;;;;;;;;;;5088931;28;38319;-81
2021/08/12 13:56:01;;;;;;;8.57;5.97;;;;;;;;;;5084799;28;37625;-80
2021/08/12 13:58:27;;;;;;;12.05;7.28;;;;;;;;;;5080406;28;48784;-81
2021/08/12 14:00:54;;;;;;;6.43;4.65;;;;;;;;;;5075843;28;36028;-81
2021/08/12 14:03:23;;;;;;;10.27;6.10;;;;;;;;;;5078627;28;40322;-80
2021/08/12 14:05:50;;;;;;;8.02;5.05;;;;;;;;;;5098937;28;39826;-81
2021/08/12 14:08:16;;;;;;;6.05;5.10;;;;;;;;;;5089404;28;39032;-81
2021/08/12 14:10:43;;;;;;;8.15;5.55;;;;;;;;;;5091797;28;37417;-80
2021/08/12 14:13:09;;;;;;;6.00;4.82;;;;;;;;;;5088905;28;40318;-80
2021/08/12 14:15:36;;;;;;;8.02;5.35;;;;;;;;;;5105832;28;37386;-81
2021/08/12 14:18:03;;;;;;;7.00;6.07;;;;;;;;;;5085379;28;39041;-81
2021/08/12 14:20:29;;;;;;;5.78;5.15;;;;;;;;;;5079620;28;36742;-82
2021/08/12 14:22:55;;;;;;;5.50;4.63;;;;;;;;;;5081834;28;40129;-80
2021/08/12 14:25:22;;;;;;;7.85;5.05;;;;;;;;;;5078010;28;39601;-81
2021/08/12 14:27:48;;;;;;;7.15;4.55;;;;;;;;;;5078046;28;39076;-80
2021/08/12 14:30:15;;;;;;;6.55;4.40;;;;;;;;;;5074075;28;36647;-80
2021/08/12 14:32:41;;;;;;;7.78;5.22;;;;;;;;;;5073619;28;40665;-81
2021/08/12 14:35:08;;;;;;;6.32;4.47;;;;;;;;;;5079928;28;39995;-81
2021/08/12 14:37:34;;;;;;;8.60;5.35;;;;;;;;;;5074375;28;39740;-81
2021/08/12 14:40:05;;;;;;;7.65;5.50;;;;;;;;;;5084166;28;36679;-80
2021/08/12 14:42:32;;;;;;;7.27;4.63;;;;;;;;;;5083375;28;48938;-81
2021/08/12 14:44:58;;;;;;;6.45;4.50;;;;;;;;;;5081682;28;36961;-81
2021/08/12 14:47:25;;;;;;;7.60;5.45;;;;;;;;;;5082083;28;38771;-81
2021/08/12 14:49:52;;;;;;;7.05;4.85;;;;;;;;;;5089494;28;37160;-81
2021/08/12 14:52:29;;;;;;;7.32;4.35;;;;;;;;;;5073983;28;39799;-81
2021/08/12 14:54:55;;;;;;;7.30;5.85;;;;;;;;;;5075692;28;37575;-81
2021/08/12 14:57:21;;;;;;;10.35;6.15;;;;;;;;;;5080545;28;38821;-81
2021/08/12 14:59:48;;;;;;;7.15;5.88;;;;;;;;;;5077908;28;37504;-81